createdAt,value
2023-05-09T00:02:09.981Z,3.95
2023-05-09T00:05:17.066Z,3.70
2023-05-09T00:08:25.174Z,4.72
2023-05-09T00:11:31.022Z,4.28
2023-05-09T00:14:39.420Z,3.90
2023-05-09T00:17:47.656Z,4.35
2023-05-09T00:20:53.536Z,3.67
2023-05-09T00:24:01.273Z,3.50
2023-05-09T00:27:07.043Z,3.70
2023-05-09T00:30:13.026Z,3.42
2023-05-09T00:33:20.739Z,3.40
2023-05-09T00:36:26.251Z,3.67
2023-05-09T00:39:31.414Z,3.45
2023-05-09T00:42:37.102Z,4.07
2023-05-09T00:45:42.495Z,3.47
2023-05-09T00:48:53.677Z,3.42
2023-05-09T00:52:06.604Z,4.10
2023-05-09T00:55:16.411Z,3.72
2023-05-09T00:58:22.446Z,3.42
2023-05-09T01:01:27.904Z,4.07
2023-05-09T01:04:36.091Z,3.70
2023-05-09T01:07:50.407Z,3.60
2023-05-09T01:11:02.112Z,3.83
2023-05-09T01:14:16.685Z,3.42
2023-05-09T01:17:27.673Z,3.80
2023-05-09T01:20:37.263Z,3.50
2023-05-09T01:23:57.179Z,3.92
2023-05-09T01:27:17.080Z,4.13
2023-05-09T01:30:25.254Z,4.22
2023-05-09T01:33:33.470Z,3.72
2023-05-09T01:36:39.868Z,4.10
2023-05-09T01:39:48.056Z,3.92
2023-05-09T01:42:55.227Z,4.15
2023-05-09T01:46:03.950Z,4.28
2023-05-09T01:49:10.540Z,3.70
2023-05-09T01:52:18.819Z,4.13
2023-05-09T01:55:27.592Z,4.07
2023-05-09T01:58:34.465Z,3.95
2023-05-09T02:01:42.094Z,4.00
2023-05-09T02:04:48.135Z,4.75
2023-05-09T02:07:55.690Z,4.20
2023-05-09T02:11:01.432Z,3.92
2023-05-09T02:14:06.647Z,3.65
2023-05-09T02:17:17.661Z,3.90
2023-05-09T02:20:22.797Z,4.30
2023-05-09T02:23:28.359Z,4.00
2023-05-09T02:26:33.840Z,4.40
2023-05-09T02:29:42.932Z,4.57
2023-05-09T02:32:53.827Z,3.88
2023-05-09T02:36:01.973Z,4.18
2023-05-09T02:39:08.430Z,4.50
2023-05-09T02:42:15.725Z,4.35
2023-05-09T02:45:20.695Z,4.72
2023-05-09T02:48:30.989Z,4.40
2023-05-09T02:51:36.534Z,4.53
2023-05-09T02:54:43.473Z,4.30
2023-05-09T02:57:50.407Z,4.80
2023-05-09T03:00:57.362Z,4.57
2023-05-09T03:04:05.108Z,4.38
2023-05-09T03:07:10.878Z,4.45
2023-05-09T03:10:15.955Z,4.75
2023-05-09T03:13:21.735Z,4.78
2023-05-09T03:16:26.828Z,4.78
2023-05-09T03:19:35.576Z,4.32
2023-05-09T03:22:42.620Z,5.20
2023-05-09T03:25:48.511Z,4.80
2023-05-09T03:28:56.055Z,5.25
2023-05-09T03:32:01.449Z,4.45
2023-05-09T03:35:13.371Z,4.43
2023-05-09T03:38:20.753Z,4.90
2023-05-09T03:41:26.475Z,4.32
2023-05-09T03:44:31.511Z,4.88
2023-05-09T03:47:36.944Z,4.28
2023-05-09T03:50:45.056Z,4.40
2023-05-09T03:53:50.773Z,4.63
2023-05-09T03:56:55.798Z,4.57
2023-05-09T04:00:05.380Z,4.50
2023-05-09T04:03:10.487Z,4.35
2023-05-09T04:06:18.785Z,4.65
2023-05-09T04:09:23.898Z,4.43
2023-05-09T04:12:30.559Z,4.70
2023-05-09T04:15:38.583Z,4.82
2023-05-09T04:18:43.962Z,4.43
2023-05-09T04:21:55.314Z,4.38
2023-05-09T04:25:01.467Z,4.60
2023-05-09T04:28:08.601Z,5.20
2023-05-09T04:31:15.389Z,4.78
2023-05-09T04:34:20.945Z,4.65
2023-05-09T04:37:28.891Z,6.82
2023-05-09T04:40:33.897Z,4.28
2023-05-09T04:43:43.322Z,4.55
2023-05-09T04:46:48.384Z,4.28
2023-05-09T04:49:54.047Z,4.28
2023-05-09T04:53:01.758Z,4.45
2023-05-09T04:56:07.626Z,4.10
2023-05-09T04:59:13.098Z,4.30
2023-05-09T05:02:18.677Z,4.30
2023-05-09T05:05:25.321Z,4.20
2023-05-09T05:08:33.660Z,4.35
2023-05-09T05:11:50.111Z,4.25
2023-05-09T05:15:02.606Z,3.53
2023-05-09T05:18:07.725Z,4.30
2023-05-09T05:21:13.104Z,4.75
2023-05-09T05:24:20.752Z,3.92
2023-05-09T05:27:26.235Z,4.13
2023-05-09T05:30:34.035Z,3.85
2023-05-09T05:33:39.780Z,3.92
2023-05-09T05:36:44.769Z,3.53
2023-05-09T05:39:52.838Z,3.88
2023-05-09T05:42:59.172Z,3.92
2023-05-09T05:46:05.072Z,3.33
2023-05-09T05:49:10.103Z,3.03
2023-05-09T05:52:16.691Z,3.60
2023-05-09T05:55:24.361Z,3.20
2023-05-09T05:58:30.161Z,3.10
2023-05-09T06:01:35.130Z,3.42
2023-05-09T06:04:40.511Z,2.97
2023-05-09T06:07:45.855Z,3.03
2023-05-09T06:10:54.155Z,3.50
2023-05-09T06:13:59.129Z,2.92
2023-05-09T06:17:05.544Z,3.22
2023-05-09T06:20:11.067Z,3.13
2023-05-09T06:23:22.096Z,3.08
2023-05-09T06:26:29.713Z,2.97
2023-05-09T06:29:35.456Z,3.40
2023-05-09T06:32:40.900Z,3.33
2023-05-09T06:35:46.326Z,3.35
2023-05-09T06:38:51.410Z,3.08
2023-05-09T06:41:59.335Z,3.30
2023-05-09T06:45:04.423Z,3.22
2023-05-09T06:48:09.912Z,2.97
2023-05-09T06:51:15.027Z,2.55
2023-05-09T06:54:20.395Z,3.20
2023-05-09T06:57:28.282Z,3.58
2023-05-09T07:00:35.870Z,2.90
2023-05-09T07:03:41.159Z,2.70
2023-05-09T07:06:46.579Z,2.90
2023-05-09T07:09:55.269Z,2.80
2023-05-09T07:13:09.945Z,2.90
2023-05-09T07:16:16.266Z,2.88
2023-05-09T07:19:21.805Z,3.15
2023-05-09T07:22:28.242Z,3.42
2023-05-09T07:25:35.797Z,2.47
2023-05-09T07:28:43.457Z,2.92
2023-05-09T07:31:49.358Z,2.92
2023-05-09T07:34:54.422Z,2.53
2023-05-09T07:38:00.058Z,2.95
2023-05-09T07:41:06.573Z,2.25
2023-05-09T07:44:18.728Z,2.40
2023-05-09T07:47:25.324Z,2.55
2023-05-09T07:50:33.363Z,1.73
2023-05-09T07:53:38.705Z,2.10
2023-05-09T07:56:46.593Z,2.20
2023-05-09T07:59:54.322Z,2.30
2023-05-09T08:03:00.252Z,2.22
2023-05-09T08:06:05.314Z,1.98
2023-05-09T08:09:11.061Z,2.00
2023-05-09T08:12:16.381Z,2.53
2023-05-09T08:15:24.724Z,2.03
2023-05-09T08:18:35.295Z,2.40
2023-05-09T08:21:41.950Z,2.05
2023-05-09T08:24:47.416Z,2.20
2023-05-09T08:27:53.261Z,2.50
2023-05-09T08:31:02.401Z,2.33
2023-05-09T08:34:09.286Z,2.35
2023-05-09T08:37:15.783Z,2.30
2023-05-09T08:40:21.551Z,2.63
2023-05-09T08:43:27.030Z,2.20
2023-05-09T08:46:37.208Z,2.38
2023-05-09T08:49:43.235Z,2.70
2023-05-09T08:52:49.042Z,2.20
2023-05-09T08:55:54.725Z,2.20
2023-05-09T08:59:00.335Z,2.17
2023-05-09T09:02:14.741Z,2.50
2023-05-09T09:05:40.203Z,2.50
2023-05-09T09:08:47.521Z,1.90
2023-05-09T09:11:54.055Z,1.88
2023-05-09T09:14:59.788Z,2.10
2023-05-09T09:18:10.300Z,2.38
2023-05-09T09:21:16.052Z,2.00
2023-05-09T09:24:26.047Z,2.42
2023-05-09T09:27:31.396Z,2.17
2023-05-09T09:30:37.190Z,2.15
2023-05-09T09:33:47.007Z,2.40
2023-05-09T09:36:53.518Z,2.15
2023-05-09T09:40:01.443Z,1.95
2023-05-09T09:43:09.977Z,2.47
2023-05-09T09:46:18.593Z,2.38
2023-05-09T09:49:27.246Z,1.98
2023-05-09T09:52:37.211Z,2.25
2023-05-09T09:55:52.256Z,2.50
2023-05-09T09:59:11.126Z,2.15
2023-05-09T10:02:27.068Z,2.42
2023-05-09T10:08:45.592Z,1.92
2023-05-09T10:15:18.992Z,2.10
2023-05-09T10:18:27.369Z,2.35
2023-05-09T10:21:38.045Z,2.50
2023-05-09T10:24:50.213Z,2.50
2023-05-09T10:27:58.267Z,2.00
2023-05-09T10:31:09.090Z,2.17
2023-05-09T10:34:15.148Z,1.95
2023-05-09T10:37:20.534Z,2.58
2023-05-09T10:40:28.835Z,2.10
2023-05-09T10:43:38.701Z,2.15
2023-05-09T10:46:48.015Z,2.75
2023-05-09T10:49:53.584Z,2.30
2023-05-09T10:53:11.697Z,2.00
2023-05-09T10:56:29.582Z,2.28
2023-05-09T10:59:40.225Z,2.35
2023-05-09T11:02:45.428Z,2.80
2023-05-09T11:05:51.406Z,2.70
2023-05-09T11:08:57.230Z,2.30
2023-05-09T11:12:21.193Z,2.55
2023-05-09T11:15:30.481Z,2.15
2023-05-09T11:18:36.064Z,2.30
2023-05-09T11:21:41.760Z,2.50
2023-05-09T11:24:49.313Z,2.20
2023-05-09T11:28:03.638Z,2.10
2023-05-09T11:31:16.222Z,2.40
2023-05-09T11:34:25.270Z,2.10
2023-05-09T11:37:35.383Z,2.42
2023-05-09T11:40:43.231Z,2.40
2023-05-09T11:43:48.785Z,2.30
2023-05-09T11:46:57.548Z,2.50
2023-05-09T11:50:03.005Z,2.30
2023-05-09T11:53:10.589Z,2.30
2023-05-09T11:56:17.418Z,2.28
2023-05-09T11:59:22.659Z,2.22
2023-05-09T12:02:31.599Z,2.70
2023-05-09T12:05:38.028Z,2.83
2023-05-09T12:08:43.437Z,2.60
2023-05-09T12:11:54.843Z,2.45
2023-05-09T12:15:00.262Z,2.60
2023-05-09T12:18:08.554Z,2.63
2023-05-09T12:21:14.519Z,2.60
2023-05-09T12:24:23.513Z,2.80
2023-05-09T12:27:29.268Z,3.03
2023-05-09T12:30:34.549Z,2.20
2023-05-09T12:33:43.820Z,3.00
2023-05-09T12:36:51.896Z,2.60
2023-05-09T12:40:17.348Z,2.30
2023-05-09T12:43:36.432Z,2.60
2023-05-09T12:46:42.274Z,3.08
2023-05-09T12:49:51.822Z,2.88
2023-05-09T12:53:03.633Z,2.70
2023-05-09T12:56:15.828Z,2.55
2023-05-09T12:59:24.162Z,2.55
2023-05-09T13:02:30.011Z,2.50
2023-05-09T13:05:38.412Z,2.42
2023-05-09T13:08:45.018Z,2.72
2023-05-09T13:11:51.046Z,3.00
2023-05-09T13:14:56.435Z,2.65
2023-05-09T13:18:01.857Z,2.42
2023-05-09T13:21:10.663Z,2.53
2023-05-09T13:24:15.815Z,2.58
2023-05-09T13:27:23.793Z,2.70
2023-05-09T13:30:28.992Z,2.30
2023-05-09T13:33:36.353Z,2.60
2023-05-09T13:36:46.158Z,2.60
2023-05-09T13:39:51.981Z,2.47
2023-05-09T13:42:57.161Z,3.00
2023-05-09T13:46:03.204Z,3.00
2023-05-09T13:49:23.956Z,2.53
2023-05-09T13:52:36.466Z,2.55
2023-05-09T13:55:41.751Z,2.22
2023-05-09T13:58:49.753Z,2.53
2023-05-09T14:01:57.679Z,2.60
2023-05-09T14:05:05.608Z,2.30
2023-05-09T14:08:26.606Z,2.60
2023-05-09T14:11:40.077Z,2.58
2023-05-09T14:14:46.526Z,2.70
2023-05-09T14:17:54.727Z,3.00
2023-05-09T14:21:00.217Z,2.85
2023-05-09T14:24:08.924Z,2.42
2023-05-09T14:27:21.357Z,2.63
2023-05-09T14:30:27.064Z,2.80
2023-05-09T14:33:33.204Z,2.70
2023-05-09T14:36:39.275Z,2.75
2023-05-09T14:39:47.983Z,2.55
2023-05-09T14:42:53.531Z,2.78
2023-05-09T14:46:01.191Z,2.70
2023-05-09T14:49:07.754Z,2.72
2023-05-09T14:52:13.991Z,3.00
2023-05-09T14:55:23.349Z,2.53
2023-05-09T14:58:31.159Z,2.75
2023-05-09T15:01:37.493Z,3.10
2023-05-09T15:04:44.300Z,2.58
2023-05-09T15:07:51.489Z,2.70
2023-05-09T15:10:59.238Z,2.75
2023-05-09T15:14:10.606Z,2.40
2023-05-09T15:17:19.088Z,2.40
2023-05-09T15:20:26.169Z,2.78
2023-05-09T15:23:31.316Z,2.85
2023-05-09T15:26:40.241Z,2.80
2023-05-09T15:29:46.832Z,3.05
2023-05-09T15:32:52.528Z,2.50
2023-05-09T15:36:00.528Z,2.55
2023-05-09T15:39:06.166Z,3.10
2023-05-09T15:42:16.954Z,2.78
2023-05-09T15:45:25.206Z,2.70
2023-05-09T15:48:30.238Z,2.40
2023-05-09T15:51:35.637Z,2.30
2023-05-09T15:54:40.686Z,2.30
2023-05-09T15:57:48.720Z,2.90
2023-05-09T16:00:53.844Z,2.30
2023-05-09T16:03:59.389Z,2.40
2023-05-09T16:07:04.815Z,2.35
2023-05-09T16:10:11.024Z,2.30
2023-05-09T16:13:21.366Z,2.72
2023-05-09T16:16:27.170Z,2.80
2023-05-09T16:19:33.653Z,2.25
2023-05-09T16:22:40.420Z,2.58
2023-05-09T16:25:50.122Z,2.20
2023-05-09T16:29:05.060Z,2.38
2023-05-09T16:32:10.560Z,2.38
2023-05-09T16:35:16.113Z,2.70
2023-05-09T16:38:21.136Z,2.50
2023-05-09T16:41:27.632Z,2.85
2023-05-09T16:44:35.404Z,2.00
2023-05-09T16:47:40.754Z,2.65
2023-05-09T16:50:46.524Z,2.85
2023-05-09T16:53:52.286Z,2.70
2023-05-09T16:56:59.487Z,2.60
2023-05-09T17:00:10.010Z,2.55
2023-05-09T17:03:27.048Z,2.25
2023-05-09T17:06:44.470Z,2.15
2023-05-09T17:09:51.320Z,2.95
2023-05-09T17:12:57.153Z,2.58
2023-05-09T17:16:05.035Z,2.50
2023-05-09T17:19:10.969Z,2.38
2023-05-09T17:22:35.784Z,2.33
2023-05-09T17:25:45.496Z,2.30
2023-05-09T17:28:51.300Z,2.35
2023-05-09T17:32:20.532Z,2.33
2023-05-09T17:35:32.490Z,2.45
2023-05-09T17:38:46.834Z,2.50
2023-05-09T17:42:04.368Z,3.20
2023-05-09T17:45:13.812Z,2.63
2023-05-09T17:48:22.102Z,2.30
2023-05-09T17:51:27.265Z,3.05
2023-05-09T17:54:32.731Z,2.95
2023-05-09T17:57:38.056Z,2.00
2023-05-09T18:00:43.474Z,2.60
2023-05-09T18:03:53.268Z,2.58
2023-05-09T18:07:00.630Z,2.47
2023-05-09T18:10:06.070Z,2.60
2023-05-09T18:13:11.432Z,2.75
2023-05-09T18:16:25.008Z,2.95
2023-05-09T18:19:36.504Z,2.80
2023-05-09T18:22:42.174Z,2.50
2023-05-09T18:25:48.666Z,2.55
2023-05-09T18:28:54.074Z,2.72
2023-05-09T18:31:59.187Z,3.00
2023-05-09T18:35:07.666Z,2.88
2023-05-09T18:38:15.087Z,2.92
2023-05-09T18:52:37.803Z,3.30
2023-05-09T18:55:43.312Z,2.78
2023-05-09T18:58:49.062Z,3.05
2023-05-09T19:02:10.807Z,3.28
2023-05-09T19:08:42.650Z,3.30
2023-05-09T19:12:01.119Z,3.30
2023-05-09T19:15:07.187Z,2.90
2023-05-09T19:18:13.125Z,3.10
2023-05-09T19:21:34.839Z,3.10
2023-05-09T19:24:43.283Z,3.37
2023-05-09T19:27:48.963Z,3.40
2023-05-09T19:30:57.428Z,2.75
2023-05-09T19:34:05.556Z,3.50
2023-05-09T19:37:15.971Z,3.63
2023-05-09T19:40:30.440Z,3.58
2023-05-09T19:43:42.004Z,4.93
2023-05-09T19:46:52.046Z,3.42
2023-05-09T19:50:00.581Z,3.42
2023-05-09T19:53:09.132Z,3.10
2023-05-09T19:56:36.686Z,3.37
2023-05-09T20:00:04.475Z,3.22
2023-05-09T20:03:29.806Z,3.00
2023-05-09T20:06:36.820Z,3.45
2023-05-09T20:09:44.611Z,3.63
2023-05-09T20:12:53.448Z,3.10
2023-05-09T20:16:26.130Z,3.00
2023-05-09T20:19:42.826Z,3.30
2023-05-09T20:22:47.844Z,3.35
2023-05-09T20:25:53.167Z,3.50
2023-05-09T20:29:01.890Z,3.38
2023-05-09T20:32:09.960Z,3.38
2023-05-09T20:35:16.157Z,3.08
2023-05-09T20:38:21.770Z,3.20
2023-05-09T20:41:27.265Z,3.38
2023-05-09T20:44:37.811Z,3.22
2023-05-09T20:47:42.847Z,3.72
2023-05-09T20:50:59.375Z,3.10
2023-05-09T20:54:04.825Z,3.33
2023-05-09T20:57:14.102Z,3.30
2023-05-09T21:00:28.321Z,4.57
2023-05-09T21:03:35.091Z,3.45
2023-05-09T21:06:40.438Z,3.22
2023-05-09T21:09:52.066Z,3.00
2023-05-09T21:13:16.731Z,3.60
2023-05-09T21:16:25.010Z,3.45
2023-05-09T21:19:30.948Z,3.25
2023-05-09T21:22:36.799Z,3.25
2023-05-09T21:25:46.835Z,3.10
2023-05-09T21:28:55.011Z,3.40
2023-05-09T21:32:02.821Z,3.30
2023-05-09T21:38:30.065Z,2.90
2023-05-09T21:41:35.661Z,3.15
2023-05-09T21:44:40.770Z,3.95
2023-05-09T21:51:03.800Z,3.20
2023-05-09T21:54:09.219Z,3.13
2023-05-09T21:57:14.558Z,3.38
2023-05-09T22:00:21.268Z,3.20
2023-05-09T22:03:28.954Z,3.33
2023-05-09T22:06:37.092Z,2.78
2023-05-09T22:09:42.432Z,3.03
2023-05-09T22:12:47.849Z,3.15
2023-05-09T22:15:52.993Z,3.40
2023-05-09T22:19:01.145Z,3.78
2023-05-09T22:22:07.501Z,4.95
2023-05-09T22:25:14.202Z,3.03
2023-05-09T22:28:19.218Z,3.10
2023-05-09T22:31:24.645Z,2.90
2023-05-09T22:34:32.482Z,3.20
2023-05-09T22:37:38.152Z,3.25
2023-05-09T22:40:43.147Z,3.20
2023-05-09T22:43:48.494Z,3.70
2023-05-09T22:46:53.550Z,3.50
2023-05-09T22:50:01.952Z,3.22
2023-05-09T22:53:10.716Z,3.10
2023-05-09T22:56:17.590Z,3.40
2023-05-09T22:59:22.825Z,3.20
2023-05-09T23:02:30.759Z,3.55
2023-05-09T23:05:38.692Z,3.03
2023-05-09T23:08:44.351Z,3.08
2023-05-09T23:11:50.491Z,3.65
2023-05-09T23:14:55.960Z,2.78
2023-05-09T23:18:01.003Z,3.10
2023-05-09T23:21:10.247Z,3.28
2023-05-09T23:24:17.826Z,3.03
2023-05-09T23:27:23.259Z,3.42
2023-05-09T23:30:28.226Z,3.20
2023-05-09T23:33:35.678Z,3.00
2023-05-09T23:36:43.293Z,3.38
2023-05-09T23:39:49.629Z,3.28
2023-05-09T23:42:54.983Z,3.70
2023-05-09T23:46:00.313Z,3.58
2023-05-09T23:49:05.286Z,3.20
2023-05-09T23:52:13.589Z,3.53
2023-05-09T23:55:20.129Z,3.47
2023-05-09T23:58:25.551Z,3.38
